sensor_id;sensor_type;location;lat;lon;timestamp;P1;durP1;ratioP1;P2;durP2;ratioP2
23826;SDS011;12094;50.822;4.376;2022-08-25T00:01:34;13.10;;;5.60;;
23826;SDS011;12094;50.822;4.376;2022-08-25T00:04:07;12.15;;;6.38;;
23826;SDS011;12094;50.822;4.376;2022-08-25T00:06:37;10.40;;;5.80;;
23826;SDS011;12094;50.822;4.376;2022-08-25T00:09:07;9.05;;;5.72;;
23826;SDS011;12094;50.822;4.376;2022-08-25T00:11:35;8.95;;;5.80;;
23826;SDS011;12094;50.822;4.376;2022-08-25T00:14:05;11.73;;;5.43;;
23826;SDS011;12094;50.822;4.376;2022-08-25T00:19:04;10.57;;;5.72;;
23826;SDS011;12094;50.822;4.376;2022-08-25T00:21:37;10.68;;;6.30;;
23826;SDS011;12094;50.822;4.376;2022-08-25T00:24:06;11.73;;;6.10;;
23826;SDS011;12094;50.822;4.376;2022-08-25T00:26:36;6.72;;;5.47;;
23826;SDS011;12094;50.822;4.376;2022-08-25T00:29:05;11.05;;;6.03;;
23826;SDS011;12094;50.822;4.376;2022-08-25T00:31:33;11.60;;;6.05;;
23826;SDS011;12094;50.822;4.376;2022-08-25T00:34:05;8.40;;;6.65;;
23826;SDS011;12094;50.822;4.376;2022-08-25T00:36:35;11.98;;;6.22;;
23826;SDS011;12094;50.822;4.376;2022-08-25T00:39:04;11.32;;;6.60;;
23826;SDS011;12094;50.822;4.376;2022-08-25T00:41:34;11.73;;;7.10;;
23826;SDS011;12094;50.822;4.376;2022-08-25T00:44:03;11.95;;;7.00;;
23826;SDS011;12094;50.822;4.376;2022-08-25T00:46:40;13.05;;;7.43;;
23826;SDS011;12094;50.822;4.376;2022-08-25T00:49:12;9.25;;;6.68;;
23826;SDS011;12094;50.822;4.376;2022-08-25T00:51:53;14.73;;;7.13;;
23826;SDS011;12094;50.822;4.376;2022-08-25T00:54:26;8.75;;;7.05;;
23826;SDS011;12094;50.822;4.376;2022-08-25T00:56:56;9.38;;;6.55;;
23826;SDS011;12094;50.822;4.376;2022-08-25T00:59:27;9.60;;;6.38;;
23826;SDS011;12094;50.822;4.376;2022-08-25T01:01:55;8.63;;;6.65;;
23826;SDS011;12094;50.822;4.376;2022-08-25T01:04:24;14.93;;;6.93;;
23826;SDS011;12094;50.822;4.376;2022-08-25T01:06:53;8.50;;;6.70;;
23826;SDS011;12094;50.822;4.376;2022-08-25T01:09:21;9.30;;;7.20;;
23826;SDS011;12094;50.822;4.376;2022-08-25T01:11:48;8.82;;;7.32;;
23826;SDS011;12094;50.822;4.376;2022-08-25T01:14:17;10.90;;;7.60;;
23826;SDS011;12094;50.822;4.376;2022-08-25T01:16:52;10.48;;;7.45;;
23826;SDS011;12094;50.822;4.376;2022-08-25T01:19:19;12.57;;;7.40;;
23826;SDS011;12094;50.822;4.376;2022-08-25T01:21:48;37.95;;;30.33;;
23826;SDS011;12094;50.822;4.376;2022-08-25T01:27:03;11.48;;;7.10;;
23826;SDS011;12094;50.822;4.376;2022-08-25T01:29:31;9.98;;;7.25;;
23826;SDS011;12094;50.822;4.376;2022-08-25T01:32:00;12.05;;;7.63;;
23826;SDS011;12094;50.822;4.376;2022-08-25T01:34:32;15.75;;;7.72;;
23826;SDS011;12094;50.822;4.376;2022-08-25T01:37:01;11.02;;;7.25;;
23826;SDS011;12094;50.822;4.376;2022-08-25T01:39:32;10.15;;;8.30;;
23826;SDS011;12094;50.822;4.376;2022-08-25T01:44:31;9.50;;;7.50;;
23826;SDS011;12094;50.822;4.376;2022-08-25T01:47:02;11.60;;;7.82;;
23826;SDS011;12094;50.822;4.376;2022-08-25T01:49:30;14.68;;;8.25;;
23826;SDS011;12094;50.822;4.376;2022-08-25T01:52:04;12.70;;;7.90;;
23826;SDS011;12094;50.822;4.376;2022-08-25T01:54:46;9.05;;;7.88;;
23826;SDS011;12094;50.822;4.376;2022-08-25T01:57:13;10.40;;;7.57;;
23826;SDS011;12094;50.822;4.376;2022-08-25T01:59:40;12.27;;;8.43;;
23826;SDS011;12094;50.822;4.376;2022-08-25T02:02:07;9.73;;;8.48;;
23826;SDS011;12094;50.822;4.376;2022-08-25T02:04:36;11.30;;;8.20;;
23826;SDS011;12094;50.822;4.376;2022-08-25T02:07:04;15.05;;;8.02;;
23826;SDS011;12094;50.822;4.376;2022-08-25T02:09:33;10.13;;;9.13;;
23826;SDS011;12094;50.822;4.376;2022-08-25T02:12:03;11.55;;;7.72;;
23826;SDS011;12094;50.822;4.376;2022-08-25T02:14:30;12.50;;;8.70;;
23826;SDS011;12094;50.822;4.376;2022-08-25T02:16:58;16.00;;;8.52;;
23826;SDS011;12094;50.822;4.376;2022-08-25T02:19:24;17.02;;;8.20;;
23826;SDS011;12094;50.822;4.376;2022-08-25T02:21:52;12.05;;;8.32;;
23826;SDS011;12094;50.822;4.376;2022-08-25T02:24:20;8.20;;;7.38;;
23826;SDS011;12094;50.822;4.376;2022-08-25T02:26:48;12.85;;;7.95;;
23826;SDS011;12094;50.822;4.376;2022-08-25T02:29:16;11.18;;;8.07;;
23826;SDS011;12094;50.822;4.376;2022-08-25T02:31:43;12.52;;;8.07;;
23826;SDS011;12094;50.822;4.376;2022-08-25T02:34:10;9.20;;;8.00;;
23826;SDS011;12094;50.822;4.376;2022-08-25T02:36:38;12.90;;;7.80;;
23826;SDS011;12094;50.822;4.376;2022-08-25T02:39:06;13.60;;;8.15;;
23826;SDS011;12094;50.822;4.376;2022-08-25T02:41:35;11.18;;;7.85;;
23826;SDS011;12094;50.822;4.376;2022-08-25T02:44:06;8.50;;;7.70;;
23826;SDS011;12094;50.822;4.376;2022-08-25T02:46:33;11.02;;;7.15;;
23826;SDS011;12094;50.822;4.376;2022-08-25T02:49:02;10.20;;;7.15;;
23826;SDS011;12094;50.822;4.376;2022-08-25T02:51:30;12.55;;;7.60;;
23826;SDS011;12094;50.822;4.376;2022-08-25T02:53:59;9.85;;;6.97;;
23826;SDS011;12094;50.822;4.376;2022-08-25T02:56:28;10.77;;;7.03;;
23826;SDS011;12094;50.822;4.376;2022-08-25T02:58:56;11.77;;;7.10;;
23826;SDS011;12094;50.822;4.376;2022-08-25T03:01:23;8.82;;;7.10;;
23826;SDS011;12094;50.822;4.376;2022-08-25T03:03:54;10.63;;;6.97;;
23826;SDS011;12094;50.822;4.376;2022-08-25T03:06:23;15.57;;;7.70;;
23826;SDS011;12094;50.822;4.376;2022-08-25T03:08:51;10.63;;;6.40;;
23826;SDS011;12094;50.822;4.376;2022-08-25T03:11:18;8.52;;;5.88;;
23826;SDS011;12094;50.822;4.376;2022-08-25T03:13:47;10.68;;;5.75;;
23826;SDS011;12094;50.822;4.376;2022-08-25T03:16:18;13.07;;;5.63;;
23826;SDS011;12094;50.822;4.376;2022-08-25T03:18:45;14.40;;;5.20;;
23826;SDS011;12094;50.822;4.376;2022-08-25T03:21:15;7.75;;;5.18;;
23826;SDS011;12094;50.822;4.376;2022-08-25T03:23:43;10.60;;;5.78;;
23826;SDS011;12094;50.822;4.376;2022-08-25T03:26:10;15.15;;;5.55;;
23826;SDS011;12094;50.822;4.376;2022-08-25T03:28:56;7.57;;;5.13;;
23826;SDS011;12094;50.822;4.376;2022-08-25T03:31:24;9.80;;;5.03;;
23826;SDS011;12094;50.822;4.376;2022-08-25T03:33:54;7.95;;;4.63;;
23826;SDS011;12094;50.822;4.376;2022-08-25T03:36:21;13.88;;;4.95;;
23826;SDS011;12094;50.822;4.376;2022-08-25T03:38:48;8.98;;;4.65;;
23826;SDS011;12094;50.822;4.376;2022-08-25T03:41:20;9.02;;;4.63;;
23826;SDS011;12094;50.822;4.376;2022-08-25T03:43:54;8.32;;;4.60;;
23826;SDS011;12094;50.822;4.376;2022-08-25T03:46:25;10.40;;;4.22;;
23826;SDS011;12094;50.822;4.376;2022-08-25T03:48:58;8.98;;;4.53;;
23826;SDS011;12094;50.822;4.376;2022-08-25T03:51:32;7.22;;;4.38;;
23826;SDS011;12094;50.822;4.376;2022-08-25T03:54:08;8.30;;;4.70;;
23826;SDS011;12094;50.822;4.376;2022-08-25T03:56:37;8.07;;;4.25;;
23826;SDS011;12094;50.822;4.376;2022-08-25T03:59:04;12.32;;;4.72;;
23826;SDS011;12094;50.822;4.376;2022-08-25T04:01:38;7.13;;;4.28;;
23826;SDS011;12094;50.822;4.376;2022-08-25T04:04:07;8.85;;;4.30;;
23826;SDS011;12094;50.822;4.376;2022-08-25T04:06:37;7.00;;;4.18;;
23826;SDS011;12094;50.822;4.376;2022-08-25T04:09:04;9.00;;;4.18;;
23826;SDS011;12094;50.822;4.376;2022-08-25T04:11:33;5.82;;;3.85;;
23826;SDS011;12094;50.822;4.376;2022-08-25T04:14:00;6.75;;;4.00;;
23826;SDS011;12094;50.822;4.376;2022-08-25T04:16:28;9.20;;;4.43;;
23826;SDS011;12094;50.822;4.376;2022-08-25T04:18:59;8.82;;;3.88;;
23826;SDS011;12094;50.822;4.376;2022-08-25T04:21:28;10.40;;;4.50;;
23826;SDS011;12094;50.822;4.376;2022-08-25T04:23:55;11.13;;;5.25;;
23826;SDS011;12094;50.822;4.376;2022-08-25T04:26:26;11.95;;;5.60;;
23826;SDS011;12094;50.822;4.376;2022-08-25T04:28:56;12.02;;;5.72;;
23826;SDS011;12094;50.822;4.376;2022-08-25T04:31:25;13.02;;;5.85;;
23826;SDS011;12094;50.822;4.376;2022-08-25T04:33:53;14.38;;;5.40;;
23826;SDS011;12094;50.822;4.376;2022-08-25T04:36:21;15.75;;;6.20;;
23826;SDS011;12094;50.822;4.376;2022-08-25T04:38:49;10.88;;;4.97;;
23826;SDS011;12094;50.822;4.376;2022-08-25T04:41:17;13.02;;;5.18;;
23826;SDS011;12094;50.822;4.376;2022-08-25T04:43:45;15.93;;;5.75;;
23826;SDS011;12094;50.822;4.376;2022-08-25T04:46:14;11.43;;;5.30;;
23826;SDS011;12094;50.822;4.376;2022-08-25T04:48:50;7.82;;;5.15;;
23826;SDS011;12094;50.822;4.376;2022-08-25T04:51:20;10.75;;;5.13;;
23826;SDS011;12094;50.822;4.376;2022-08-25T04:53:48;12.65;;;5.28;;
23826;SDS011;12094;50.822;4.376;2022-08-25T04:56:17;11.23;;;5.05;;
23826;SDS011;12094;50.822;4.376;2022-08-25T04:58:45;13.32;;;5.43;;
23826;SDS011;12094;50.822;4.376;2022-08-25T05:01:16;11.82;;;5.10;;
23826;SDS011;12094;50.822;4.376;2022-08-25T05:03:46;12.82;;;5.20;;
23826;SDS011;12094;50.822;4.376;2022-08-25T05:06:21;15.13;;;4.95;;
23826;SDS011;12094;50.822;4.376;2022-08-25T05:08:49;15.13;;;4.97;;
23826;SDS011;12094;50.822;4.376;2022-08-25T05:11:17;12.45;;;5.00;;
23826;SDS011;12094;50.822;4.376;2022-08-25T05:13:46;11.45;;;5.18;;
23826;SDS011;12094;50.822;4.376;2022-08-25T05:16:17;10.13;;;4.43;;
23826;SDS011;12094;50.822;4.376;2022-08-25T05:18:47;8.20;;;4.05;;
23826;SDS011;12094;50.822;4.376;2022-08-25T05:21:15;7.80;;;4.25;;
23826;SDS011;12094;50.822;4.376;2022-08-25T05:23:45;11.52;;;4.13;;
23826;SDS011;12094;50.822;4.376;2022-08-25T05:26:14;6.10;;;4.05;;
23826;SDS011;12094;50.822;4.376;2022-08-25T05:28:47;10.13;;;4.35;;
23826;SDS011;12094;50.822;4.376;2022-08-25T05:31:15;12.73;;;4.43;;
23826;SDS011;12094;50.822;4.376;2022-08-25T05:33:43;7.20;;;4.03;;
23826;SDS011;12094;50.822;4.376;2022-08-25T05:36:11;7.93;;;3.83;;
23826;SDS011;12094;50.822;4.376;2022-08-25T05:38:39;8.48;;;3.83;;
23826;SDS011;12094;50.822;4.376;2022-08-25T05:41:11;7.07;;;3.90;;
23826;SDS011;12094;50.822;4.376;2022-08-25T05:43:41;7.53;;;3.72;;
23826;SDS011;12094;50.822;4.376;2022-08-25T05:46:10;15.55;;;4.30;;
23826;SDS011;12094;50.822;4.376;2022-08-25T05:48:38;9.15;;;4.10;;
23826;SDS011;12094;50.822;4.376;2022-08-25T05:51:07;10.05;;;3.80;;
23826;SDS011;12094;50.822;4.376;2022-08-25T05:53:37;10.02;;;4.05;;
23826;SDS011;12094;50.822;4.376;2022-08-25T05:56:07;13.27;;;4.10;;
23826;SDS011;12094;50.822;4.376;2022-08-25T05:58:35;11.45;;;3.95;;
23826;SDS011;12094;50.822;4.376;2022-08-25T06:01:04;8.10;;;4.22;;
23826;SDS011;12094;50.822;4.376;2022-08-25T06:03:51;12.00;;;3.75;;
23826;SDS011;12094;50.822;4.376;2022-08-25T06:06:20;9.80;;;4.05;;
23826;SDS011;12094;50.822;4.376;2022-08-25T06:08:49;18.52;;;4.03;;
23826;SDS011;12094;50.822;4.376;2022-08-25T06:11:17;11.02;;;3.80;;
23826;SDS011;12094;50.822;4.376;2022-08-25T06:13:44;13.57;;;4.20;;
23826;SDS011;12094;50.822;4.376;2022-08-25T06:16:11;10.75;;;3.92;;
23826;SDS011;12094;50.822;4.376;2022-08-25T06:18:38;11.38;;;4.20;;
23826;SDS011;12094;50.822;4.376;2022-08-25T06:21:09;14.15;;;3.80;;
23826;SDS011;12094;50.822;4.376;2022-08-25T06:26:05;12.98;;;4.13;;
23826;SDS011;12094;50.822;4.376;2022-08-25T06:28:38;19.55;;;4.22;;
23826;SDS011;12094;50.822;4.376;2022-08-25T06:31:05;10.48;;;4.05;;
23826;SDS011;12094;50.822;4.376;2022-08-25T06:33:32;12.50;;;3.67;;
23826;SDS011;12094;50.822;4.376;2022-08-25T06:36:00;10.35;;;4.38;;
23826;SDS011;12094;50.822;4.376;2022-08-25T06:38:28;12.73;;;4.07;;
23826;SDS011;12094;50.822;4.376;2022-08-25T06:40:55;13.73;;;4.10;;
23826;SDS011;12094;50.822;4.376;2022-08-25T06:43:23;12.60;;;3.85;;
23826;SDS011;12094;50.822;4.376;2022-08-25T06:45:50;12.25;;;3.90;;
23826;SDS011;12094;50.822;4.376;2022-08-25T06:48:18;12.10;;;4.13;;
23826;SDS011;12094;50.822;4.376;2022-08-25T06:50:45;16.95;;;3.63;;
23826;SDS011;12094;50.822;4.376;2022-08-25T06:53:12;12.25;;;4.28;;
23826;SDS011;12094;50.822;4.376;2022-08-25T06:55:41;14.02;;;3.63;;
23826;SDS011;12094;50.822;4.376;2022-08-25T06:58:08;9.40;;;3.33;;
23826;SDS011;12094;50.822;4.376;2022-08-25T07:00:36;10.88;;;3.92;;
23826;SDS011;12094;50.822;4.376;2022-08-25T07:03:03;13.15;;;3.25;;
23826;SDS011;12094;50.822;4.376;2022-08-25T07:05:32;8.35;;;3.40;;
23826;SDS011;12094;50.822;4.376;2022-08-25T07:08:08;15.18;;;3.97;;
23826;SDS011;12094;50.822;4.376;2022-08-25T07:10:37;14.10;;;3.47;;
23826;SDS011;12094;50.822;4.376;2022-08-25T07:13:04;19.75;;;3.85;;
23826;SDS011;12094;50.822;4.376;2022-08-25T07:15:31;9.60;;;3.72;;
23826;SDS011;12094;50.822;4.376;2022-08-25T07:18:03;11.03;;;3.80;;
23826;SDS011;12094;50.822;4.376;2022-08-25T07:20:32;9.82;;;3.83;;
23826;SDS011;12094;50.822;4.376;2022-08-25T07:25:30;15.30;;;3.63;;
23826;SDS011;12094;50.822;4.376;2022-08-25T07:27:57;12.27;;;3.92;;
23826;SDS011;12094;50.822;4.376;2022-08-25T07:30:26;13.25;;;4.72;;
23826;SDS011;12094;50.822;4.376;2022-08-25T07:32:53;14.95;;;4.35;;
23826;SDS011;12094;50.822;4.376;2022-08-25T07:35:22;13.27;;;4.68;;
23826;SDS011;12094;50.822;4.376;2022-08-25T07:37:53;17.30;;;4.38;;
23826;SDS011;12094;50.822;4.376;2022-08-25T07:40:25;10.13;;;3.70;;
23826;SDS011;12094;50.822;4.376;2022-08-25T07:42:54;6.97;;;3.15;;
23826;SDS011;12094;50.822;4.376;2022-08-25T07:45:23;10.23;;;3.33;;
23826;SDS011;12094;50.822;4.376;2022-08-25T07:48:01;13.00;;;3.72;;
23826;SDS011;12094;50.822;4.376;2022-08-25T07:50:31;7.60;;;3.42;;
23826;SDS011;12094;50.822;4.376;2022-08-25T07:52:58;11.35;;;3.47;;
23826;SDS011;12094;50.822;4.376;2022-08-25T07:55:28;9.30;;;3.50;;
23826;SDS011;12094;50.822;4.376;2022-08-25T07:57:55;7.45;;;3.30;;
23826;SDS011;12094;50.822;4.376;2022-08-25T08:00:25;8.60;;;3.72;;
23826;SDS011;12094;50.822;4.376;2022-08-25T08:02:55;6.40;;;2.72;;
23826;SDS011;12094;50.822;4.376;2022-08-25T08:05:24;9.30;;;3.00;;
23826;SDS011;12094;50.822;4.376;2022-08-25T08:07:52;8.25;;;2.95;;
23826;SDS011;12094;50.822;4.376;2022-08-25T08:10:20;7.20;;;2.92;;
23826;SDS011;12094;50.822;4.376;2022-08-25T08:13:08;7.38;;;3.10;;
23826;SDS011;12094;50.822;4.376;2022-08-25T08:15:43;8.98;;;2.88;;
23826;SDS011;12094;50.822;4.376;2022-08-25T08:18:10;8.10;;;3.30;;
23826;SDS011;12094;50.822;4.376;2022-08-25T08:20:37;8.55;;;3.42;;
23826;SDS011;12094;50.822;4.376;2022-08-25T08:23:08;8.00;;;2.80;;
23826;SDS011;12094;50.822;4.376;2022-08-25T08:25:36;7.72;;;2.97;;
23826;SDS011;12094;50.822;4.376;2022-08-25T08:28:03;7.00;;;2.90;;
23826;SDS011;12094;50.822;4.376;2022-08-25T08:30:33;9.75;;;3.50;;
23826;SDS011;12094;50.822;4.376;2022-08-25T08:33:02;12.15;;;3.50;;
23826;SDS011;12094;50.822;4.376;2022-08-25T08:35:37;5.75;;;3.10;;
23826;SDS011;12094;50.822;4.376;2022-08-25T08:38:06;11.18;;;3.03;;
23826;SDS011;12094;50.822;4.376;2022-08-25T08:40:44;12.27;;;3.15;;
23826;SDS011;12094;50.822;4.376;2022-08-25T08:43:40;5.60;;;2.83;;
23826;SDS011;12094;50.822;4.376;2022-08-25T08:46:08;6.15;;;3.00;;
23826;SDS011;12094;50.822;4.376;2022-08-25T08:48:51;7.65;;;2.65;;
23826;SDS011;12094;50.822;4.376;2022-08-25T08:51:23;11.48;;;2.80;;
23826;SDS011;12094;50.822;4.376;2022-08-25T08:54:06;7.57;;;3.53;;
23826;SDS011;12094;50.822;4.376;2022-08-25T08:57:06;6.22;;;3.17;;
23826;SDS011;12094;50.822;4.376;2022-08-25T08:59:50;6.40;;;2.75;;
23826;SDS011;12094;50.822;4.376;2022-08-25T09:02:38;10.77;;;2.70;;
23826;SDS011;12094;50.822;4.376;2022-08-25T09:05:18;7.82;;;2.78;;
23826;SDS011;12094;50.822;4.376;2022-08-25T09:08:22;15.05;;;3.20;;
23826;SDS011;12094;50.822;4.376;2022-08-25T09:16:40;9.60;;;2.92;;
23826;SDS011;12094;50.822;4.376;2022-08-25T09:19:43;5.80;;;2.58;;
23826;SDS011;12094;50.822;4.376;2022-08-25T09:25:23;7.22;;;2.58;;
23826;SDS011;12094;50.822;4.376;2022-08-25T09:28:27;8.25;;;2.67;;
23826;SDS011;12094;50.822;4.376;2022-08-25T09:33:44;7.55;;;2.47;;
23826;SDS011;12094;50.822;4.376;2022-08-25T09:36:11;8.02;;;2.50;;
23826;SDS011;12094;50.822;4.376;2022-08-25T09:38:39;16.75;;;2.80;;
23826;SDS011;12094;50.822;4.376;2022-08-25T09:41:07;3.55;;;2.70;;
23826;SDS011;12094;50.822;4.376;2022-08-25T09:43:37;9.48;;;3.35;;
23826;SDS011;12094;50.822;4.376;2022-08-25T09:48:46;11.60;;;3.22;;
23826;SDS011;12094;50.822;4.376;2022-08-25T09:51:29;9.85;;;2.97;;
23826;SDS011;12094;50.822;4.376;2022-08-25T09:59:21;6.20;;;2.72;;
23826;SDS011;12094;50.822;4.376;2022-08-25T10:02:10;7.68;;;2.58;;
23826;SDS011;12094;50.822;4.376;2022-08-25T10:04:49;7.25;;;2.60;;
23826;SDS011;12094;50.822;4.376;2022-08-25T10:12:29;5.72;;;2.50;;
23826;SDS011;12094;50.822;4.376;2022-08-25T10:21:08;4.75;;;2.25;;
23826;SDS011;12094;50.822;4.376;2022-08-25T10:23:39;7.82;;;2.67;;
23826;SDS011;12094;50.822;4.376;2022-08-25T10:26:12;9.55;;;2.40;;
23826;SDS011;12094;50.822;4.376;2022-08-25T10:32:10;6.57;;;2.22;;
23826;SDS011;12094;50.822;4.376;2022-08-25T10:37:27;9.38;;;2.65;;
23826;SDS011;12094;50.822;4.376;2022-08-25T10:40:13;5.63;;;2.72;;
23826;SDS011;12094;50.822;4.376;2022-08-25T10:43:10;5.80;;;2.50;;
23826;SDS011;12094;50.822;4.376;2022-08-25T10:45:47;4.22;;;2.53;;
23826;SDS011;12094;50.822;4.376;2022-08-25T10:48:40;9.32;;;2.75;;
23826;SDS011;12094;50.822;4.376;2022-08-25T10:51:17;4.35;;;2.35;;
23826;SDS011;12094;50.822;4.376;2022-08-25T10:56:57;3.05;;;2.28;;
23826;SDS011;12094;50.822;4.376;2022-08-25T10:59:40;5.78;;;2.97;;
23826;SDS011;12094;50.822;4.376;2022-08-25T11:08:13;5.68;;;3.00;;
23826;SDS011;12094;50.822;4.376;2022-08-25T11:11:10;11.35;;;2.63;;
23826;SDS011;12094;50.822;4.376;2022-08-25T11:13:56;10.55;;;2.70;;
23826;SDS011;12094;50.822;4.376;2022-08-25T11:19:15;7.47;;;2.45;;
23826;SDS011;12094;50.822;4.376;2022-08-25T11:28:10;7.65;;;2.50;;
23826;SDS011;12094;50.822;4.376;2022-08-25T11:30:39;7.38;;;2.47;;
23826;SDS011;12094;50.822;4.376;2022-08-25T11:33:10;3.63;;;2.40;;
23826;SDS011;12094;50.822;4.376;2022-08-25T11:44:04;7.25;;;2.80;;
23826;SDS011;12094;50.822;4.376;2022-08-25T11:50:00;4.82;;;2.20;;
23826;SDS011;12094;50.822;4.376;2022-08-25T11:52:55;5.78;;;2.63;;
23826;SDS011;12094;50.822;4.376;2022-08-25T11:58:24;6.90;;;2.60;;
23826;SDS011;12094;50.822;4.376;2022-08-25T12:01:02;6.53;;;2.28;;
23826;SDS011;12094;50.822;4.376;2022-08-25T12:09:37;7.97;;;2.83;;
23826;SDS011;12094;50.822;4.376;2022-08-25T12:11:49;8.90;;;2.17;;
23826;SDS011;12094;50.822;4.376;2022-08-25T12:30:07;4.82;;;2.20;;
23826;SDS011;12094;50.822;4.376;2022-08-25T12:35:55;4.63;;;2.40;;
23826;SDS011;12094;50.822;4.376;2022-08-25T12:41:21;4.25;;;1.90;;
23826;SDS011;12094;50.822;4.376;2022-08-25T12:43:51;4.53;;;2.55;;
23826;SDS011;12094;50.822;4.376;2022-08-25T12:46:37;7.40;;;2.25;;
23826;SDS011;12094;50.822;4.376;2022-08-25T12:49:50;6.55;;;2.30;;
23826;SDS011;12094;50.822;4.376;2022-08-25T12:51:59;7.95;;;2.20;;
23826;SDS011;12094;50.822;4.376;2022-08-25T12:57:23;3.65;;;2.30;;
23826;SDS011;12094;50.822;4.376;2022-08-25T13:00:24;7.25;;;2.47;;
23826;SDS011;12094;50.822;4.376;2022-08-25T13:09:30;6.78;;;2.08;;
23826;SDS011;12094;50.822;4.376;2022-08-25T13:18:20;4.57;;;2.25;;
23826;SDS011;12094;50.822;4.376;2022-08-25T13:21:03;7.03;;;2.25;;
23826;SDS011;12094;50.822;4.376;2022-08-25T13:23:41;6.93;;;2.00;;
23826;SDS011;12094;50.822;4.376;2022-08-25T13:26:14;5.97;;;2.50;;
23826;SDS011;12094;50.822;4.376;2022-08-25T13:28:57;6.00;;;2.40;;
23826;SDS011;12094;50.822;4.376;2022-08-25T13:31:27;4.93;;;2.42;;
23826;SDS011;12094;50.822;4.376;2022-08-25T13:34:02;10.95;;;2.38;;
23826;SDS011;12094;50.822;4.376;2022-08-25T13:36:40;5.07;;;2.20;;
23826;SDS011;12094;50.822;4.376;2022-08-25T13:39:28;10.73;;;2.67;;
23826;SDS011;12094;50.822;4.376;2022-08-25T13:42:15;8.85;;;2.58;;
23826;SDS011;12094;50.822;4.376;2022-08-25T13:44:43;6.10;;;2.70;;
23826;SDS011;12094;50.822;4.376;2022-08-25T13:47:32;5.55;;;2.53;;
23826;SDS011;12094;50.822;4.376;2022-08-25T13:53:02;5.63;;;2.55;;
23826;SDS011;12094;50.822;4.376;2022-08-25T13:58:49;13.37;;;3.33;;
23826;SDS011;12094;50.822;4.376;2022-08-25T14:01:19;7.82;;;2.83;;
23826;SDS011;12094;50.822;4.376;2022-08-25T14:04:28;10.23;;;2.55;;
23826;SDS011;12094;50.822;4.376;2022-08-25T14:09:52;7.28;;;2.40;;
23826;SDS011;12094;50.822;4.376;2022-08-25T14:12:43;13.38;;;5.38;;
23826;SDS011;12094;50.822;4.376;2022-08-25T14:17:58;12.98;;;5.32;;
23826;SDS011;12094;50.822;4.376;2022-08-25T14:20:26;15.93;;;5.50;;
23826;SDS011;12094;50.822;4.376;2022-08-25T14:22:57;15.30;;;5.50;;
23826;SDS011;12094;50.822;4.376;2022-08-25T14:25:28;13.02;;;5.25;;
23826;SDS011;12094;50.822;4.376;2022-08-25T14:28:04;15.90;;;5.10;;
23826;SDS011;12094;50.822;4.376;2022-08-25T14:30:40;12.10;;;5.30;;
23826;SDS011;12094;50.822;4.376;2022-08-25T14:33:12;19.42;;;5.60;;
23826;SDS011;12094;50.822;4.376;2022-08-25T14:35:40;21.58;;;5.68;;
23826;SDS011;12094;50.822;4.376;2022-08-25T14:38:10;16.73;;;6.30;;
23826;SDS011;12094;50.822;4.376;2022-08-25T14:40:39;17.13;;;6.28;;
23826;SDS011;12094;50.822;4.376;2022-08-25T14:43:06;14.50;;;5.60;;
23826;SDS011;12094;50.822;4.376;2022-08-25T14:45:40;14.10;;;5.50;;
23826;SDS011;12094;50.822;4.376;2022-08-25T14:48:31;16.35;;;6.28;;
23826;SDS011;12094;50.822;4.376;2022-08-25T14:51:04;14.27;;;5.50;;
23826;SDS011;12094;50.822;4.376;2022-08-25T14:53:32;11.20;;;5.07;;
23826;SDS011;12094;50.822;4.376;2022-08-25T14:56:00;13.45;;;4.70;;
23826;SDS011;12094;50.822;4.376;2022-08-25T14:58:34;9.63;;;5.07;;
23826;SDS011;12094;50.822;4.376;2022-08-25T15:01:16;11.10;;;4.40;;
23826;SDS011;12094;50.822;4.376;2022-08-25T15:04:05;7.70;;;4.65;;
23826;SDS011;12094;50.822;4.376;2022-08-25T15:06:37;11.77;;;4.90;;
23826;SDS011;12094;50.822;4.376;2022-08-25T15:11:45;17.83;;;4.90;;
23826;SDS011;12094;50.822;4.376;2022-08-25T15:14:17;8.90;;;3.90;;
23826;SDS011;12094;50.822;4.376;2022-08-25T15:16:58;14.32;;;4.03;;
23826;SDS011;12094;50.822;4.376;2022-08-25T15:19:27;13.93;;;5.63;;
23826;SDS011;12094;50.822;4.376;2022-08-25T15:21:54;11.85;;;5.82;;
23826;SDS011;12094;50.822;4.376;2022-08-25T15:24:25;15.65;;;7.60;;
23826;SDS011;12094;50.822;4.376;2022-08-25T15:26:55;11.32;;;7.18;;
23826;SDS011;12094;50.822;4.376;2022-08-25T15:29:24;13.63;;;7.40;;
23826;SDS011;12094;50.822;4.376;2022-08-25T15:31:56;12.05;;;7.95;;
23826;SDS011;12094;50.822;4.376;2022-08-25T15:34:25;14.70;;;9.13;;
23826;SDS011;12094;50.822;4.376;2022-08-25T15:36:52;16.95;;;11.25;;
23826;SDS011;12094;50.822;4.376;2022-08-25T15:39:19;18.50;;;11.48;;
23826;SDS011;12094;50.822;4.376;2022-08-25T15:41:46;17.70;;;10.00;;
23826;SDS011;12094;50.822;4.376;2022-08-25T15:44:16;17.38;;;10.20;;
23826;SDS011;12094;50.822;4.376;2022-08-25T15:46:44;14.52;;;10.05;;
23826;SDS011;12094;50.822;4.376;2022-08-25T15:49:18;16.35;;;10.88;;
23826;SDS011;12094;50.822;4.376;2022-08-25T15:51:51;19.52;;;10.73;;
23826;SDS011;12094;50.822;4.376;2022-08-25T15:54:21;18.95;;;11.95;;
23826;SDS011;12094;50.822;4.376;2022-08-25T15:56:52;20.38;;;13.80;;
23826;SDS011;12094;50.822;4.376;2022-08-25T15:59:25;18.05;;;12.52;;
23826;SDS011;12094;50.822;4.376;2022-08-25T16:01:53;15.57;;;12.57;;
23826;SDS011;12094;50.822;4.376;2022-08-25T16:04:24;19.65;;;13.60;;
23826;SDS011;12094;50.822;4.376;2022-08-25T16:06:55;22.80;;;12.10;;
23826;SDS011;12094;50.822;4.376;2022-08-25T16:09:24;21.13;;;13.32;;
23826;SDS011;12094;50.822;4.376;2022-08-25T16:11:52;22.33;;;13.38;;
23826;SDS011;12094;50.822;4.376;2022-08-25T16:14:23;19.13;;;11.50;;
23826;SDS011;12094;50.822;4.376;2022-08-25T16:16:51;17.10;;;11.48;;
23826;SDS011;12094;50.822;4.376;2022-08-25T16:19:24;22.08;;;12.70;;
23826;SDS011;12094;50.822;4.376;2022-08-25T16:21:51;18.15;;;12.48;;
23826;SDS011;12094;50.822;4.376;2022-08-25T16:24:18;17.38;;;12.40;;
23826;SDS011;12094;50.822;4.376;2022-08-25T16:26:49;13.35;;;9.68;;
23826;SDS011;12094;50.822;4.376;2022-08-25T16:29:17;19.13;;;10.93;;
23826;SDS011;12094;50.822;4.376;2022-08-25T16:31:48;21.05;;;13.93;;
23826;SDS011;12094;50.822;4.376;2022-08-25T16:34:18;18.67;;;13.93;;
23826;SDS011;12094;50.822;4.376;2022-08-25T16:36:45;18.77;;;14.15;;
23826;SDS011;12094;50.822;4.376;2022-08-25T16:39:23;22.57;;;14.07;;
23826;SDS011;12094;50.822;4.376;2022-08-25T16:41:52;24.88;;;15.55;;
23826;SDS011;12094;50.822;4.376;2022-08-25T16:44:20;26.38;;;16.10;;
23826;SDS011;12094;50.822;4.376;2022-08-25T16:46:48;25.73;;;16.63;;
23826;SDS011;12094;50.822;4.376;2022-08-25T16:49:19;29.15;;;17.58;;
23826;SDS011;12094;50.822;4.376;2022-08-25T16:51:50;24.95;;;16.40;;
23826;SDS011;12094;50.822;4.376;2022-08-25T16:54:23;21.75;;;15.38;;
23826;SDS011;12094;50.822;4.376;2022-08-25T16:57:10;32.75;;;16.20;;
23826;SDS011;12094;50.822;4.376;2022-08-25T16:59:37;29.45;;;16.80;;
23826;SDS011;12094;50.822;4.376;2022-08-25T17:02:04;27.83;;;18.50;;
23826;SDS011;12094;50.822;4.376;2022-08-25T17:04:32;22.20;;;16.30;;
23826;SDS011;12094;50.822;4.376;2022-08-25T17:06:59;27.25;;;18.38;;
23826;SDS011;12094;50.822;4.376;2022-08-25T17:09:28;23.58;;;15.35;;
23826;SDS011;12094;50.822;4.376;2022-08-25T17:11:56;25.25;;;17.08;;
23826;SDS011;12094;50.822;4.376;2022-08-25T17:14:26;21.63;;;14.32;;
23826;SDS011;12094;50.822;4.376;2022-08-25T17:16:54;24.65;;;15.98;;
23826;SDS011;12094;50.822;4.376;2022-08-25T17:19:21;27.30;;;17.30;;
23826;SDS011;12094;50.822;4.376;2022-08-25T17:21:50;28.45;;;18.33;;
23826;SDS011;12094;50.822;4.376;2022-08-25T17:24:20;22.73;;;16.27;;
23826;SDS011;12094;50.822;4.376;2022-08-25T17:26:55;20.15;;;14.45;;